sensor_id;sensor_type;location;lat;lon;timestamp;P1;durP1;ratioP1;P2;durP2;ratioP2
10900;SDS011;5503;53.208;10.392;2023-04-25T00:01:17;7.47;;;3.70;;
10900;SDS011;5503;53.208;10.392;2023-04-25T00:03:44;6.05;;;3.13;;
10900;SDS011;5503;53.208;10.392;2023-04-25T00:06:11;5.15;;;2.22;;
10900;SDS011;5503;53.208;10.392;2023-04-25T00:08:40;6.25;;;3.00;;
10900;SDS011;5503;53.208;10.392;2023-04-25T00:11:07;7.07;;;3.10;;
10900;SDS011;5503;53.208;10.392;2023-04-25T00:13:34;5.72;;;2.78;;
10900;SDS011;5503;53.208;10.392;2023-04-25T00:16:01;7.30;;;2.63;;
10900;SDS011;5503;53.208;10.392;2023-04-25T00:18:29;8.10;;;2.92;;
10900;SDS011;5503;53.208;10.392;2023-04-25T00:20:58;5.55;;;2.83;;
10900;SDS011;5503;53.208;10.392;2023-04-25T00:23:25;4.45;;;2.40;;
10900;SDS011;5503;53.208;10.392;2023-04-25T00:25:54;5.70;;;2.58;;
10900;SDS011;5503;53.208;10.392;2023-04-25T00:28:21;5.47;;;2.80;;
10900;SDS011;5503;53.208;10.392;2023-04-25T00:30:48;5.55;;;3.00;;
10900;SDS011;5503;53.208;10.392;2023-04-25T00:33:15;6.65;;;3.25;;
10900;SDS011;5503;53.208;10.392;2023-04-25T00:35:42;4.50;;;2.28;;
10900;SDS011;5503;53.208;10.392;2023-04-25T00:38:09;4.88;;;3.10;;
10900;SDS011;5503;53.208;10.392;2023-04-25T00:40:36;8.13;;;3.13;;
10900;SDS011;5503;53.208;10.392;2023-04-25T00:43:05;4.60;;;2.78;;
10900;SDS011;5503;53.208;10.392;2023-04-25T00:45:32;6.00;;;3.25;;
10900;SDS011;5503;53.208;10.392;2023-04-25T00:48:02;5.75;;;3.50;;
10900;SDS011;5503;53.208;10.392;2023-04-25T00:50:30;5.88;;;3.45;;
10900;SDS011;5503;53.208;10.392;2023-04-25T00:52:57;8.82;;;3.15;;
10900;SDS011;5503;53.208;10.392;2023-04-25T00:55:24;5.07;;;2.40;;
10900;SDS011;5503;53.208;10.392;2023-04-25T00:57:51;6.50;;;2.70;;
10900;SDS011;5503;53.208;10.392;2023-04-25T01:00:20;5.25;;;2.60;;
10900;SDS011;5503;53.208;10.392;2023-04-25T01:02:47;7.20;;;3.25;;
10900;SDS011;5503;53.208;10.392;2023-04-25T01:05:14;5.97;;;2.95;;
10900;SDS011;5503;53.208;10.392;2023-04-25T01:07:44;6.80;;;3.38;;
10900;SDS011;5503;53.208;10.392;2023-04-25T01:10:12;7.07;;;3.10;;
10900;SDS011;5503;53.208;10.392;2023-04-25T01:12:40;5.97;;;3.10;;
10900;SDS011;5503;53.208;10.392;2023-04-25T01:15:07;6.53;;;3.05;;
10900;SDS011;5503;53.208;10.392;2023-04-25T01:17:36;7.47;;;3.20;;
10900;SDS011;5503;53.208;10.392;2023-04-25T01:20:04;4.65;;;2.60;;
10900;SDS011;5503;53.208;10.392;2023-04-25T01:22:35;5.72;;;2.83;;
10900;SDS011;5503;53.208;10.392;2023-04-25T01:25:03;4.10;;;2.00;;
10900;SDS011;5503;53.208;10.392;2023-04-25T01:27:30;5.13;;;2.70;;
10900;SDS011;5503;53.208;10.392;2023-04-25T01:33:21;5.10;;;2.35;;
10900;SDS011;5503;53.208;10.392;2023-04-25T01:35:48;3.97;;;2.28;;
10900;SDS011;5503;53.208;10.392;2023-04-25T01:38:17;6.80;;;2.40;;
10900;SDS011;5503;53.208;10.392;2023-04-25T01:40:44;4.88;;;2.70;;
10900;SDS011;5503;53.208;10.392;2023-04-25T01:43:12;5.65;;;2.08;;
10900;SDS011;5503;53.208;10.392;2023-04-25T01:45:39;4.07;;;2.00;;
10900;SDS011;5503;53.208;10.392;2023-04-25T01:48:06;7.03;;;2.30;;
10900;SDS011;5503;53.208;10.392;2023-04-25T01:50:34;7.32;;;2.35;;
10900;SDS011;5503;53.208;10.392;2023-04-25T01:53:01;5.38;;;1.90;;
10900;SDS011;5503;53.208;10.392;2023-04-25T01:55:30;5.53;;;1.88;;
10900;SDS011;5503;53.208;10.392;2023-04-25T01:57:57;9.52;;;1.83;;
10900;SDS011;5503;53.208;10.392;2023-04-25T02:00:25;3.83;;;1.95;;
10900;SDS011;5503;53.208;10.392;2023-04-25T02:02:52;8.45;;;1.63;;
10900;SDS011;5503;53.208;10.392;2023-04-25T02:05:19;14.60;;;2.40;;
10900;SDS011;5503;53.208;10.392;2023-04-25T02:07:47;5.70;;;2.22;;
10900;SDS011;5503;53.208;10.392;2023-04-25T02:12:51;5.13;;;2.38;;
10900;SDS011;5503;53.208;10.392;2023-04-25T02:15:18;5.50;;;2.95;;
10900;SDS011;5503;53.208;10.392;2023-04-25T02:17:46;3.63;;;1.77;;
10900;SDS011;5503;53.208;10.392;2023-04-25T02:20:13;4.25;;;2.05;;
10900;SDS011;5503;53.208;10.392;2023-04-25T02:22:41;8.75;;;1.83;;
10900;SDS011;5503;53.208;10.392;2023-04-25T02:25:09;5.15;;;1.55;;
10900;SDS011;5503;53.208;10.392;2023-04-25T02:27:37;5.82;;;2.60;;
10900;SDS011;5503;53.208;10.392;2023-04-25T02:30:06;5.68;;;2.03;;
10900;SDS011;5503;53.208;10.392;2023-04-25T02:32:34;7.07;;;2.28;;
10900;SDS011;5503;53.208;10.392;2023-04-25T02:35:01;4.55;;;1.88;;
10900;SDS011;5503;53.208;10.392;2023-04-25T02:37:29;6.70;;;2.03;;
10900;SDS011;5503;53.208;10.392;2023-04-25T02:39:56;8.75;;;2.42;;
10900;SDS011;5503;53.208;10.392;2023-04-25T02:42:24;5.07;;;1.98;;
10900;SDS011;5503;53.208;10.392;2023-04-25T02:44:51;11.52;;;2.47;;
10900;SDS011;5503;53.208;10.392;2023-04-25T02:47:20;11.32;;;3.33;;
10900;SDS011;5503;53.208;10.392;2023-04-25T02:49:47;6.70;;;2.85;;
10900;SDS011;5503;53.208;10.392;2023-04-25T02:52:14;7.22;;;2.45;;
10900;SDS011;5503;53.208;10.392;2023-04-25T02:54:41;3.88;;;2.05;;
10900;SDS011;5503;53.208;10.392;2023-04-25T02:57:09;5.68;;;2.03;;
10900;SDS011;5503;53.208;10.392;2023-04-25T02:59:36;4.80;;;2.50;;
10900;SDS011;5503;53.208;10.392;2023-04-25T03:02:03;5.95;;;1.98;;
10900;SDS011;5503;53.208;10.392;2023-04-25T03:04:32;9.65;;;2.25;;
10900;SDS011;5503;53.208;10.392;2023-04-25T03:06:59;10.15;;;2.28;;
10900;SDS011;5503;53.208;10.392;2023-04-25T03:09:27;7.40;;;2.45;;
10900;SDS011;5503;53.208;10.392;2023-04-25T03:11:54;6.43;;;2.45;;
10900;SDS011;5503;53.208;10.392;2023-04-25T03:14:22;4.53;;;1.80;;
10900;SDS011;5503;53.208;10.392;2023-04-25T03:16:49;5.40;;;2.45;;
10900;SDS011;5503;53.208;10.392;2023-04-25T03:19:16;8.15;;;1.80;;
10900;SDS011;5503;53.208;10.392;2023-04-25T03:21:45;5.00;;;2.28;;
10900;SDS011;5503;53.208;10.392;2023-04-25T03:24:12;7.03;;;2.00;;
10900;SDS011;5503;53.208;10.392;2023-04-25T03:26:39;4.03;;;1.92;;
10900;SDS011;5503;53.208;10.392;2023-04-25T03:29:06;10.23;;;2.55;;
10900;SDS011;5503;53.208;10.392;2023-04-25T03:31:34;16.85;;;2.60;;
10900;SDS011;5503;53.208;10.392;2023-04-25T03:34:01;6.43;;;3.20;;
10900;SDS011;5503;53.208;10.392;2023-04-25T03:36:28;5.18;;;2.30;;
10900;SDS011;5503;53.208;10.392;2023-04-25T03:38:57;10.85;;;2.40;;
10900;SDS011;5503;53.208;10.392;2023-04-25T03:41:24;6.28;;;2.75;;
10900;SDS011;5503;53.208;10.392;2023-04-25T03:43:51;6.50;;;2.78;;
10900;SDS011;5503;53.208;10.392;2023-04-25T03:46:18;8.85;;;2.58;;
10900;SDS011;5503;53.208;10.392;2023-04-25T03:48:45;13.18;;;2.47;;
10900;SDS011;5503;53.208;10.392;2023-04-25T03:51:12;7.43;;;2.70;;
10900;SDS011;5503;53.208;10.392;2023-04-25T03:53:40;6.47;;;2.15;;
10900;SDS011;5503;53.208;10.392;2023-04-25T03:56:09;5.45;;;2.20;;
10900;SDS011;5503;53.208;10.392;2023-04-25T03:58:36;14.25;;;2.63;;
10900;SDS011;5503;53.208;10.392;2023-04-25T04:01:03;4.82;;;2.80;;
10900;SDS011;5503;53.208;10.392;2023-04-25T04:03:32;8.10;;;3.20;;
10900;SDS011;5503;53.208;10.392;2023-04-25T04:06:00;5.35;;;2.53;;
10900;SDS011;5503;53.208;10.392;2023-04-25T04:08:28;7.15;;;2.50;;
10900;SDS011;5503;53.208;10.392;2023-04-25T04:10:55;8.45;;;2.38;;
10900;SDS011;5503;53.208;10.392;2023-04-25T04:13:25;5.97;;;2.10;;
10900;SDS011;5503;53.208;10.392;2023-04-25T04:15:52;6.78;;;2.40;;
10900;SDS011;5503;53.208;10.392;2023-04-25T04:18:19;4.20;;;1.92;;
10900;SDS011;5503;53.208;10.392;2023-04-25T04:20:46;4.85;;;2.60;;
10900;SDS011;5503;53.208;10.392;2023-04-25T04:23:14;3.28;;;1.60;;
10900;SDS011;5503;53.208;10.392;2023-04-25T04:25:41;16.50;;;2.30;;
10900;SDS011;5503;53.208;10.392;2023-04-25T04:28:08;11.20;;;2.10;;
10900;SDS011;5503;53.208;10.392;2023-04-25T04:30:37;10.63;;;2.78;;
10900;SDS011;5503;53.208;10.392;2023-04-25T04:33:04;15.52;;;3.13;;
10900;SDS011;5503;53.208;10.392;2023-04-25T04:35:32;4.68;;;2.38;;
10900;SDS011;5503;53.208;10.392;2023-04-25T04:38:00;7.82;;;3.15;;
10900;SDS011;5503;53.208;10.392;2023-04-25T04:40:27;5.15;;;2.17;;
10900;SDS011;5503;53.208;10.392;2023-04-25T04:42:55;6.22;;;2.65;;
10900;SDS011;5503;53.208;10.392;2023-04-25T04:45:22;4.93;;;2.40;;
10900;SDS011;5503;53.208;10.392;2023-04-25T04:47:51;3.65;;;2.00;;
10900;SDS011;5503;53.208;10.392;2023-04-25T04:50:20;6.45;;;1.73;;
10900;SDS011;5503;53.208;10.392;2023-04-25T04:52:47;8.85;;;2.75;;
10900;SDS011;5503;53.208;10.392;2023-04-25T04:55:14;9.50;;;2.55;;
10900;SDS011;5503;53.208;10.392;2023-04-25T04:57:42;11.57;;;3.15;;
10900;SDS011;5503;53.208;10.392;2023-04-25T05:00:09;5.80;;;2.83;;
10900;SDS011;5503;53.208;10.392;2023-04-25T05:02:37;4.95;;;1.88;;
10900;SDS011;5503;53.208;10.392;2023-04-25T05:05:06;8.07;;;2.40;;
10900;SDS011;5503;53.208;10.392;2023-04-25T05:07:34;5.68;;;1.90;;
10900;SDS011;5503;53.208;10.392;2023-04-25T05:10:01;9.07;;;2.95;;
10900;SDS011;5503;53.208;10.392;2023-04-25T05:12:29;4.20;;;1.92;;
10900;SDS011;5503;53.208;10.392;2023-04-25T05:14:56;3.90;;;2.20;;
10900;SDS011;5503;53.208;10.392;2023-04-25T05:17:24;6.70;;;2.20;;
10900;SDS011;5503;53.208;10.392;2023-04-25T05:19:51;3.40;;;1.60;;
10900;SDS011;5503;53.208;10.392;2023-04-25T05:22:19;6.22;;;2.53;;
10900;SDS011;5503;53.208;10.392;2023-04-25T05:24:46;8.02;;;2.38;;
10900;SDS011;5503;53.208;10.392;2023-04-25T05:27:16;5.82;;;1.70;;
10900;SDS011;5503;53.208;10.392;2023-04-25T05:29:43;12.15;;;2.10;;
10900;SDS011;5503;53.208;10.392;2023-04-25T05:32:10;3.58;;;1.45;;
10900;SDS011;5503;53.208;10.392;2023-04-25T05:34:37;9.15;;;2.30;;
10900;SDS011;5503;53.208;10.392;2023-04-25T05:37:05;6.72;;;2.17;;
10900;SDS011;5503;53.208;10.392;2023-04-25T05:39:33;13.18;;;2.65;;
10900;SDS011;5503;53.208;10.392;2023-04-25T05:42:00;6.22;;;2.55;;
10900;SDS011;5503;53.208;10.392;2023-04-25T05:44:28;8.57;;;1.85;;
10900;SDS011;5503;53.208;10.392;2023-04-25T05:46:56;6.28;;;2.58;;
10900;SDS011;5503;53.208;10.392;2023-04-25T05:49:23;9.13;;;1.83;;
10900;SDS011;5503;53.208;10.392;2023-04-25T05:51:50;6.28;;;2.08;;
10900;SDS011;5503;53.208;10.392;2023-04-25T05:54:18;8.63;;;2.03;;
10900;SDS011;5503;53.208;10.392;2023-04-25T05:56:46;8.10;;;1.90;;
10900;SDS011;5503;53.208;10.392;2023-04-25T05:59:13;4.43;;;1.70;;
10900;SDS011;5503;53.208;10.392;2023-04-25T06:01:41;5.03;;;2.08;;
10900;SDS011;5503;53.208;10.392;2023-04-25T06:04:08;8.40;;;2.47;;
10900;SDS011;5503;53.208;10.392;2023-04-25T06:06:35;3.67;;;1.30;;
10900;SDS011;5503;53.208;10.392;2023-04-25T06:09:02;3.47;;;1.80;;
10900;SDS011;5503;53.208;10.392;2023-04-25T06:11:30;6.45;;;1.73;;
10900;SDS011;5503;53.208;10.392;2023-04-25T06:13:58;6.07;;;1.40;;
10900;SDS011;5503;53.208;10.392;2023-04-25T06:16:25;8.02;;;2.17;;
10900;SDS011;5503;53.208;10.392;2023-04-25T06:18:53;6.50;;;2.00;;
10900;SDS011;5503;53.208;10.392;2023-04-25T06:21:20;10.43;;;1.95;;
10900;SDS011;5503;53.208;10.392;2023-04-25T06:23:47;6.72;;;1.75;;
10900;SDS011;5503;53.208;10.392;2023-04-25T06:26:14;3.03;;;1.42;;
10900;SDS011;5503;53.208;10.392;2023-04-25T06:28:42;9.45;;;1.80;;
10900;SDS011;5503;53.208;10.392;2023-04-25T06:31:10;4.80;;;2.15;;
10900;SDS011;5503;53.208;10.392;2023-04-25T06:33:37;5.93;;;2.38;;
10900;SDS011;5503;53.208;10.392;2023-04-25T06:36:05;4.43;;;1.70;;
10900;SDS011;5503;53.208;10.392;2023-04-25T06:38:32;5.82;;;2.00;;
10900;SDS011;5503;53.208;10.392;2023-04-25T06:40:59;6.85;;;1.98;;
10900;SDS011;5503;53.208;10.392;2023-04-25T06:43:27;8.13;;;1.80;;
10900;SDS011;5503;53.208;10.392;2023-04-25T06:45:58;6.63;;;2.28;;
10900;SDS011;5503;53.208;10.392;2023-04-25T06:48:26;4.75;;;2.40;;
10900;SDS011;5503;53.208;10.392;2023-04-25T06:50:54;5.60;;;2.05;;
10900;SDS011;5503;53.208;10.392;2023-04-25T06:53:21;6.18;;;1.70;;
10900;SDS011;5503;53.208;10.392;2023-04-25T06:55:49;3.70;;;1.77;;
10900;SDS011;5503;53.208;10.392;2023-04-25T06:58:16;4.85;;;2.08;;
10900;SDS011;5503;53.208;10.392;2023-04-25T07:00:43;3.92;;;1.55;;
10900;SDS011;5503;53.208;10.392;2023-04-25T07:03:10;5.93;;;1.60;;
10900;SDS011;5503;53.208;10.392;2023-04-25T07:05:39;5.40;;;1.83;;
10900;SDS011;5503;53.208;10.392;2023-04-25T07:08:07;3.90;;;1.92;;
10900;SDS011;5503;53.208;10.392;2023-04-25T07:10:34;6.38;;;1.95;;
10900;SDS011;5503;53.208;10.392;2023-04-25T07:13:01;4.75;;;2.15;;
10900;SDS011;5503;53.208;10.392;2023-04-25T07:15:29;4.20;;;1.67;;
10900;SDS011;5503;53.208;10.392;2023-04-25T07:17:56;3.63;;;1.58;;
10900;SDS011;5503;53.208;10.392;2023-04-25T07:20:23;4.20;;;1.42;;
10900;SDS011;5503;53.208;10.392;2023-04-25T07:22:51;6.10;;;1.90;;
10900;SDS011;5503;53.208;10.392;2023-04-25T07:25:18;6.68;;;1.80;;
10900;SDS011;5503;53.208;10.392;2023-04-25T07:27:46;7.55;;;1.90;;
10900;SDS011;5503;53.208;10.392;2023-04-25T07:30:13;6.22;;;2.00;;
10900;SDS011;5503;53.208;10.392;2023-04-25T07:32:40;5.10;;;1.80;;
10900;SDS011;5503;53.208;10.392;2023-04-25T07:35:08;3.92;;;1.63;;
10900;SDS011;5503;53.208;10.392;2023-04-25T07:37:35;3.65;;;1.60;;
10900;SDS011;5503;53.208;10.392;2023-04-25T07:40:05;5.35;;;1.60;;
10900;SDS011;5503;53.208;10.392;2023-04-25T07:42:32;6.22;;;2.08;;
10900;SDS011;5503;53.208;10.392;2023-04-25T07:45:00;4.38;;;1.70;;
10900;SDS011;5503;53.208;10.392;2023-04-25T07:47:27;3.67;;;1.40;;
10900;SDS011;5503;53.208;10.392;2023-04-25T07:49:55;5.47;;;1.48;;
10900;SDS011;5503;53.208;10.392;2023-04-25T07:52:23;3.42;;;1.63;;
10900;SDS011;5503;53.208;10.392;2023-04-25T07:54:50;11.30;;;2.13;;
10900;SDS011;5503;53.208;10.392;2023-04-25T07:57:18;6.93;;;1.85;;
10900;SDS011;5503;53.208;10.392;2023-04-25T07:59:45;3.70;;;1.20;;
10900;SDS011;5503;53.208;10.392;2023-04-25T08:02:13;3.42;;;1.50;;
10900;SDS011;5503;53.208;10.392;2023-04-25T08:04:40;5.07;;;1.80;;
10900;SDS011;5503;53.208;10.392;2023-04-25T08:07:07;3.53;;;1.35;;
10900;SDS011;5503;53.208;10.392;2023-04-25T08:09:34;6.32;;;2.17;;
10900;SDS011;5503;53.208;10.392;2023-04-25T08:12:02;3.20;;;1.50;;
10900;SDS011;5503;53.208;10.392;2023-04-25T08:14:31;3.80;;;1.88;;
10900;SDS011;5503;53.208;10.392;2023-04-25T08:17:01;5.07;;;1.50;;
10900;SDS011;5503;53.208;10.392;2023-04-25T08:19:28;4.95;;;1.50;;
10900;SDS011;5503;53.208;10.392;2023-04-25T08:21:56;4.93;;;1.30;;
10900;SDS011;5503;53.208;10.392;2023-04-25T08:24:23;3.40;;;1.52;;
10900;SDS011;5503;53.208;10.392;2023-04-25T08:26:50;4.30;;;1.70;;
10900;SDS011;5503;53.208;10.392;2023-04-25T08:29:19;4.20;;;2.15;;
10900;SDS011;5503;53.208;10.392;2023-04-25T08:31:47;8.23;;;2.00;;
10900;SDS011;5503;53.208;10.392;2023-04-25T08:34:14;4.15;;;1.70;;
10900;SDS011;5503;53.208;10.392;2023-04-25T08:36:41;5.20;;;1.67;;
10900;SDS011;5503;53.208;10.392;2023-04-25T08:39:09;4.00;;;1.80;;
10900;SDS011;5503;53.208;10.392;2023-04-25T08:41:38;4.68;;;1.67;;
10900;SDS011;5503;53.208;10.392;2023-04-25T08:44:05;3.30;;;1.50;;
10900;SDS011;5503;53.208;10.392;2023-04-25T08:46:36;3.10;;;1.30;;
10900;SDS011;5503;53.208;10.392;2023-04-25T08:49:07;2.83;;;1.30;;
10900;SDS011;5503;53.208;10.392;2023-04-25T08:51:36;4.93;;;1.40;;
10900;SDS011;5503;53.208;10.392;2023-04-25T08:54:11;6.15;;;1.38;;
10900;SDS011;5503;53.208;10.392;2023-04-25T08:56:39;2.75;;;1.20;;
10900;SDS011;5503;53.208;10.392;2023-04-25T08:59:09;4.10;;;1.38;;
10900;SDS011;5503;53.208;10.392;2023-04-25T09:01:37;3.88;;;1.75;;
10900;SDS011;5503;53.208;10.392;2023-04-25T09:04:04;5.10;;;1.50;;
10900;SDS011;5503;53.208;10.392;2023-04-25T09:06:33;3.33;;;1.50;;
10900;SDS011;5503;53.208;10.392;2023-04-25T09:09:01;3.17;;;1.30;;
10900;SDS011;5503;53.208;10.392;2023-04-25T09:11:30;3.60;;;1.17;;
10900;SDS011;5503;53.208;10.392;2023-04-25T09:14:13;2.95;;;1.20;;
10900;SDS011;5503;53.208;10.392;2023-04-25T09:16:57;3.13;;;1.40;;
10900;SDS011;5503;53.208;10.392;2023-04-25T09:19:26;6.25;;;1.77;;
10900;SDS011;5503;53.208;10.392;2023-04-25T09:21:56;13.80;;;1.63;;
10900;SDS011;5503;53.208;10.392;2023-04-25T09:24:32;3.45;;;1.38;;
10900;SDS011;5503;53.208;10.392;2023-04-25T09:27:02;8.80;;;1.90;;
10900;SDS011;5503;53.208;10.392;2023-04-25T09:29:31;3.08;;;1.30;;
10900;SDS011;5503;53.208;10.392;2023-04-25T09:32:11;3.53;;;1.30;;
10900;SDS011;5503;53.208;10.392;2023-04-25T09:34:40;2.90;;;0.98;;
10900;SDS011;5503;53.208;10.392;2023-04-25T09:37:09;3.10;;;1.40;;
10900;SDS011;5503;53.208;10.392;2023-04-25T09:39:37;3.05;;;1.40;;
10900;SDS011;5503;53.208;10.392;2023-04-25T09:42:04;2.95;;;1.15;;
10900;SDS011;5503;53.208;10.392;2023-04-25T09:44:32;3.88;;;1.38;;
10900;SDS011;5503;53.208;10.392;2023-04-25T09:46:59;2.83;;;1.15;;
10900;SDS011;5503;53.208;10.392;2023-04-25T09:49:28;3.00;;;1.17;;
10900;SDS011;5503;53.208;10.392;2023-04-25T09:51:55;3.33;;;1.23;;
10900;SDS011;5503;53.208;10.392;2023-04-25T09:54:24;2.90;;;1.17;;
10900;SDS011;5503;53.208;10.392;2023-04-25T09:56:52;5.13;;;1.42;;
10900;SDS011;5503;53.208;10.392;2023-04-25T09:59:20;3.17;;;1.58;;
10900;SDS011;5503;53.208;10.392;2023-04-25T10:01:49;3.53;;;1.30;;
10900;SDS011;5503;53.208;10.392;2023-04-25T10:04:18;4.40;;;1.27;;
10900;SDS011;5503;53.208;10.392;2023-04-25T10:06:49;5.25;;;1.58;;
10900;SDS011;5503;53.208;10.392;2023-04-25T10:09:18;6.00;;;1.30;;
10900;SDS011;5503;53.208;10.392;2023-04-25T10:11:48;3.47;;;1.33;;
10900;SDS011;5503;53.208;10.392;2023-04-25T10:14:17;4.18;;;1.35;;
10900;SDS011;5503;53.208;10.392;2023-04-25T10:16:45;5.32;;;1.80;;
10900;SDS011;5503;53.208;10.392;2023-04-25T10:19:14;3.28;;;1.40;;
10900;SDS011;5503;53.208;10.392;2023-04-25T10:21:44;7.63;;;1.70;;
10900;SDS011;5503;53.208;10.392;2023-04-25T10:24:16;4.07;;;1.40;;
10900;SDS011;5503;53.208;10.392;2023-04-25T10:26:43;2.97;;;1.25;;
10900;SDS011;5503;53.208;10.392;2023-04-25T10:29:12;5.38;;;1.63;;
10900;SDS011;5503;53.208;10.392;2023-04-25T10:31:47;4.75;;;1.55;;
10900;SDS011;5503;53.208;10.392;2023-04-25T10:34:15;2.80;;;1.15;;
10900;SDS011;5503;53.208;10.392;2023-04-25T10:36:42;3.25;;;1.00;;
10900;SDS011;5503;53.208;10.392;2023-04-25T10:39:10;3.00;;;1.40;;
10900;SDS011;5503;53.208;10.392;2023-04-25T10:41:46;2.70;;;1.10;;
10900;SDS011;5503;53.208;10.392;2023-04-25T10:44:15;4.50;;;1.92;;
10900;SDS011;5503;53.208;10.392;2023-04-25T10:46:42;4.38;;;1.60;;
10900;SDS011;5503;53.208;10.392;2023-04-25T10:49:11;5.30;;;1.50;;
10900;SDS011;5503;53.208;10.392;2023-04-25T10:52:10;3.00;;;1.50;;
10900;SDS011;5503;53.208;10.392;2023-04-25T10:54:41;4.75;;;1.73;;
10900;SDS011;5503;53.208;10.392;2023-04-25T10:57:27;3.20;;;1.40;;
10900;SDS011;5503;53.208;10.392;2023-04-25T11:00:00;2.67;;;1.00;;
10900;SDS011;5503;53.208;10.392;2023-04-25T11:02:31;6.70;;;1.40;;
10900;SDS011;5503;53.208;10.392;2023-04-25T11:04:59;4.28;;;1.40;;
10900;SDS011;5503;53.208;10.392;2023-04-25T11:07:29;3.30;;;1.50;;
10900;SDS011;5503;53.208;10.392;2023-04-25T11:10:02;3.28;;;1.58;;
10900;SDS011;5503;53.208;10.392;2023-04-25T11:12:30;3.92;;;1.40;;
10900;SDS011;5503;53.208;10.392;2023-04-25T11:14:58;5.50;;;1.40;;
10900;SDS011;5503;53.208;10.392;2023-04-25T11:17:27;4.15;;;1.58;;
10900;SDS011;5503;53.208;10.392;2023-04-25T11:19:55;3.05;;;1.30;;
10900;SDS011;5503;53.208;10.392;2023-04-25T11:22:22;3.00;;;1.20;;
10900;SDS011;5503;53.208;10.392;2023-04-25T11:24:50;4.23;;;1.30;;
10900;SDS011;5503;53.208;10.392;2023-04-25T11:27:17;3.70;;;1.33;;
10900;SDS011;5503;53.208;10.392;2023-04-25T11:29:44;3.25;;;1.30;;
10900;SDS011;5503;53.208;10.392;2023-04-25T11:32:15;3.75;;;1.20;;
10900;SDS011;5503;53.208;10.392;2023-04-25T11:34:44;3.92;;;1.00;;
10900;SDS011;5503;53.208;10.392;2023-04-25T11:37:11;3.70;;;1.30;;
10900;SDS011;5503;53.208;10.392;2023-04-25T11:39:42;5.28;;;1.20;;
10900;SDS011;5503;53.208;10.392;2023-04-25T11:42:11;4.57;;;1.20;;
10900;SDS011;5503;53.208;10.392;2023-04-25T11:44:38;2.92;;;1.15;;
10900;SDS011;5503;53.208;10.392;2023-04-25T11:47:06;4.55;;;1.52;;
10900;SDS011;5503;53.208;10.392;2023-04-25T11:49:35;4.00;;;1.48;;
10900;SDS011;5503;53.208;10.392;2023-04-25T11:52:02;4.30;;;1.70;;
10900;SDS011;5503;53.208;10.392;2023-04-25T11:54:34;3.90;;;1.40;;
10900;SDS011;5503;53.208;10.392;2023-04-25T11:57:02;2.78;;;1.25;;
10900;SDS011;5503;53.208;10.392;2023-04-25T11:59:29;4.20;;;1.80;;
10900;SDS011;5503;53.208;10.392;2023-04-25T12:01:56;4.45;;;1.75;;
10900;SDS011;5503;53.208;10.392;2023-04-25T12:04:29;3.30;;;1.38;;
10900;SDS011;5503;53.208;10.392;2023-04-25T12:06:59;3.90;;;1.52;;
10900;SDS011;5503;53.208;10.392;2023-04-25T12:09:30;3.20;;;1.27;;
10900;SDS011;5503;53.208;10.392;2023-04-25T12:11:59;3.30;;;1.70;;
10900;SDS011;5503;53.208;10.392;2023-04-25T12:14:29;3.20;;;1.40;;
10900;SDS011;5503;53.208;10.392;2023-04-25T12:16:57;4.00;;;1.60;;
10900;SDS011;5503;53.208;10.392;2023-04-25T12:19:25;3.20;;;1.23;;
10900;SDS011;5503;53.208;10.392;2023-04-25T12:21:52;4.03;;;1.30;;
10900;SDS011;5503;53.208;10.392;2023-04-25T12:24:23;4.40;;;1.75;;
10900;SDS011;5503;53.208;10.392;2023-04-25T12:26:52;3.28;;;1.30;;
10900;SDS011;5503;53.208;10.392;2023-04-25T12:29:25;3.08;;;1.20;;
10900;SDS011;5503;53.208;10.392;2023-04-25T12:31:54;4.70;;;1.65;;
10900;SDS011;5503;53.208;10.392;2023-04-25T12:34:22;3.50;;;1.30;;
10900;SDS011;5503;53.208;10.392;2023-04-25T12:36:50;2.70;;;1.00;;
10900;SDS011;5503;53.208;10.392;2023-04-25T12:39:18;3.57;;;1.73;;
10900;SDS011;5503;53.208;10.392;2023-04-25T12:41:48;2.70;;;1.08;;
10900;SDS011;5503;53.208;10.392;2023-04-25T12:44:15;6.20;;;1.60;;
10900;SDS011;5503;53.208;10.392;2023-04-25T12:46:43;3.75;;;1.10;;
10900;SDS011;5503;53.208;10.392;2023-04-25T12:49:10;2.90;;;0.98;;
10900;SDS011;5503;53.208;10.392;2023-04-25T12:51:37;3.63;;;1.10;;
10900;SDS011;5503;53.208;10.392;2023-04-25T12:54:05;3.30;;;1.00;;
10900;SDS011;5503;53.208;10.392;2023-04-25T12:56:33;2.72;;;1.00;;
10900;SDS011;5503;53.208;10.392;2023-04-25T12:59:02;2.97;;;1.05;;
10900;SDS011;5503;53.208;10.392;2023-04-25T13:01:29;3.28;;;1.05;;
10900;SDS011;5503;53.208;10.392;2023-04-25T13:03:56;2.70;;;0.97;;
10900;SDS011;5503;53.208;10.392;2023-04-25T13:06:24;3.78;;;1.45;;
10900;SDS011;5503;53.208;10.392;2023-04-25T13:08:51;3.17;;;1.23;;
10900;SDS011;5503;53.208;10.392;2023-04-25T13:11:19;7.07;;;1.20;;
10900;SDS011;5503;53.208;10.392;2023-04-25T13:13:46;2.70;;;1.00;;
10900;SDS011;5503;53.208;10.392;2023-04-25T13:16:15;4.87;;;1.10;;
10900;SDS011;5503;53.208;10.392;2023-04-25T13:18:42;3.33;;;1.10;;
10900;SDS011;5503;53.208;10.392;2023-04-25T13:21:09;2.90;;;1.00;;
10900;SDS011;5503;53.208;10.392;2023-04-25T13:23:37;5.00;;;1.50;;
10900;SDS011;5503;53.208;10.392;2023-04-25T13:26:05;3.45;;;1.23;;
10900;SDS011;5503;53.208;10.392;2023-04-25T13:28:33;4.53;;;1.40;;
10900;SDS011;5503;53.208;10.392;2023-04-25T13:31:00;3.65;;;1.30;;
10900;SDS011;5503;53.208;10.392;2023-04-25T13:33:28;2.95;;;1.20;;
10900;SDS011;5503;53.208;10.392;2023-04-25T13:35:56;2.83;;;1.10;;
10900;SDS011;5503;53.208;10.392;2023-04-25T13:38:23;4.47;;;1.50;;
10900;SDS011;5503;53.208;10.392;2023-04-25T13:40:51;3.80;;;1.30;;
10900;SDS011;5503;53.208;10.392;2023-04-25T13:43:19;3.55;;;1.40;;
10900;SDS011;5503;53.208;10.392;2023-04-25T13:45:46;3.33;;;1.30;;
10900;SDS011;5503;53.208;10.392;2023-04-25T13:48:14;3.08;;;1.20;;
10900;SDS011;5503;53.208;10.392;2023-04-25T13:50:42;3.08;;;1.23;;
10900;SDS011;5503;53.208;10.392;2023-04-25T13:53:10;2.80;;;1.00;;
10900;SDS011;5503;53.208;10.392;2023-04-25T13:55:37;3.13;;;0.95;;
10900;SDS011;5503;53.208;10.392;2023-04-25T13:58:04;2.72;;;1.10;;
10900;SDS011;5503;53.208;10.392;2023-04-25T14:00:35;2.90;;;0.90;;
10900;SDS011;5503;53.208;10.392;2023-04-25T14:03:04;3.10;;;1.00;;
10900;SDS011;5503;53.208;10.392;2023-04-25T14:05:32;2.63;;;1.00;;
10900;SDS011;5503;53.208;10.392;2023-04-25T14:08:05;3.13;;;1.15;;
10900;SDS011;5503;53.208;10.392;2023-04-25T14:10:32;3.45;;;1.10;;
10900;SDS011;5503;53.208;10.392;2023-04-25T14:13:00;3.40;;;1.17;;
10900;SDS011;5503;53.208;10.392;2023-04-25T14:15:28;3.83;;;1.00;;
10900;SDS011;5503;53.208;10.392;2023-04-25T14:17:55;2.83;;;0.93;;
10900;SDS011;5503;53.208;10.392;2023-04-25T14:20:23;4.72;;;1.05;;
10900;SDS011;5503;53.208;10.392;2023-04-25T14:22:50;3.72;;;1.13;;
10900;SDS011;5503;53.208;10.392;2023-04-25T14:25:20;2.97;;;1.05;;
10900;SDS011;5503;53.208;10.392;2023-04-25T14:27:48;3.83;;;1.10;;
10900;SDS011;5503;53.208;10.392;2023-04-25T14:30:15;4.50;;;1.17;;
10900;SDS011;5503;53.208;10.392;2023-04-25T14:32:43;2.92;;;0.90;;
10900;SDS011;5503;53.208;10.392;2023-04-25T14:35:10;7.00;;;1.50;;
10900;SDS011;5503;53.208;10.392;2023-04-25T14:37:37;2.70;;;1.10;;
10900;SDS011;5503;53.208;10.392;2023-04-25T14:40:06;3.17;;;1.23;;
10900;SDS011;5503;53.208;10.392;2023-04-25T14:42:36;3.67;;;1.50;;
10900;SDS011;5503;53.208;10.392;2023-04-25T14:45:04;3.00;;;1.30;;
10900;SDS011;5503;53.208;10.392;2023-04-25T14:47:32;6.00;;;1.38;;
10900;SDS011;5503;53.208;10.392;2023-04-25T14:49:59;4.07;;;1.20;;
10900;SDS011;5503;53.208;10.392;2023-04-25T14:52:27;3.00;;;1.30;;
10900;SDS011;5503;53.208;10.392;2023-04-25T14:54:54;3.08;;;1.38;;
10900;SDS011;5503;53.208;10.392;2023-04-25T14:57:21;2.63;;;1.05;;
10900;SDS011;5503;53.208;10.392;2023-04-25T14:59:50;3.72;;;0.90;;